createdAt,value
2023-05-08T00:00:59.546Z,2.23
2023-05-08T00:03:08.713Z,2.17
2023-05-08T00:05:19.362Z,2.17
2023-05-08T00:07:27.986Z,2.00
2023-05-08T00:09:36.903Z,2.40
2023-05-08T00:11:45.843Z,2.17
2023-05-08T00:13:54.543Z,1.90
2023-05-08T00:16:03.069Z,1.93
2023-05-08T00:18:11.996Z,2.00
2023-05-08T00:20:22.750Z,2.07
2023-05-08T00:22:31.567Z,1.90
2023-05-08T00:24:40.067Z,2.00
2023-05-08T00:26:48.607Z,1.80
2023-05-08T00:28:57.235Z,1.80
2023-05-08T00:31:06.073Z,2.20
2023-05-08T00:33:14.876Z,1.83
2023-05-08T00:35:25.517Z,1.73
2023-05-08T00:37:34.168Z,1.67
2023-05-08T00:39:42.987Z,2.00
2023-05-08T00:41:52.226Z,2.10
2023-05-08T00:44:00.969Z,2.20
2023-05-08T00:46:11.602Z,1.83
2023-05-08T00:48:20.925Z,2.23
2023-05-08T00:50:31.271Z,2.13
2023-05-08T00:52:41.153Z,2.20
2023-05-08T00:54:50.238Z,1.97
2023-05-08T00:56:59.792Z,1.97
2023-05-08T00:59:11.181Z,1.63
2023-05-08T01:01:20.312Z,1.80
2023-05-08T01:03:30.703Z,2.10
2023-05-08T01:05:42.465Z,1.83
2023-05-08T01:07:51.364Z,1.70
2023-05-08T01:09:59.915Z,1.93
2023-05-08T01:12:13.002Z,1.93
2023-05-08T01:14:22.609Z,1.87
2023-05-08T01:16:33.690Z,1.87
2023-05-08T01:18:46.997Z,2.13
2023-05-08T01:20:59.590Z,1.90
2023-05-08T01:23:18.953Z,1.87
2023-05-08T01:25:44.227Z,1.90
2023-05-08T01:28:04.655Z,2.10
2023-05-08T01:30:35.082Z,1.87
2023-05-08T01:32:48.620Z,1.90
2023-05-08T01:35:01.524Z,1.90
2023-05-08T01:37:13.572Z,2.00
2023-05-08T01:39:23.842Z,2.60
2023-05-08T01:41:34.028Z,1.80
2023-05-08T01:43:47.459Z,1.87
2023-05-08T01:45:57.141Z,1.80
2023-05-08T01:48:08.414Z,1.93
2023-05-08T01:50:19.209Z,2.00
2023-05-08T01:52:31.948Z,1.90
2023-05-08T01:54:44.256Z,1.73
2023-05-08T01:56:55.008Z,1.73
2023-05-08T01:59:04.120Z,2.07
2023-05-08T02:01:13.930Z,1.90
2023-05-08T02:03:25.754Z,2.00
2023-05-08T02:05:35.214Z,1.73
2023-05-08T02:07:45.710Z,2.47
2023-05-08T02:09:55.527Z,1.80
2023-05-08T02:12:04.896Z,2.00
2023-05-08T02:14:15.359Z,1.90
2023-05-08T02:16:23.946Z,2.30
2023-05-08T02:18:34.912Z,1.87
2023-05-08T02:20:43.758Z,2.03
2023-05-08T02:22:53.877Z,2.30
2023-05-08T02:25:03.158Z,2.13
2023-05-08T02:27:12.928Z,2.00
2023-05-08T02:29:22.078Z,2.60
2023-05-08T02:31:32.218Z,2.50
2023-05-08T02:33:44.132Z,2.50
2023-05-08T02:35:53.549Z,2.47
2023-05-08T02:38:03.119Z,2.20
2023-05-08T02:40:13.328Z,2.57
2023-05-08T02:42:22.718Z,2.10
2023-05-08T02:44:31.771Z,2.53
2023-05-08T02:46:46.032Z,2.00
2023-05-08T02:49:01.035Z,2.40
2023-05-08T02:51:14.345Z,2.30
2023-05-08T02:53:27.144Z,2.07
2023-05-08T02:55:38.052Z,2.30
2023-05-08T02:57:49.364Z,1.97
2023-05-08T02:59:59.731Z,2.27
2023-05-08T03:02:11.919Z,2.00
2023-05-08T03:04:27.127Z,1.80
2023-05-08T03:06:38.005Z,2.23
2023-05-08T03:08:47.453Z,2.10
2023-05-08T03:10:57.608Z,2.07
2023-05-08T03:13:09.226Z,2.40
2023-05-08T03:15:21.573Z,2.27
2023-05-08T03:17:31.276Z,2.47
2023-05-08T03:19:43.683Z,2.00
2023-05-08T03:21:53.882Z,2.43
2023-05-08T03:24:04.241Z,2.20
2023-05-08T03:26:13.914Z,2.00
2023-05-08T03:28:23.511Z,2.37
2023-05-08T03:30:33.245Z,2.27
2023-05-08T03:32:42.697Z,2.17
2023-05-08T03:34:53.620Z,2.20
2023-05-08T03:37:02.189Z,2.10
2023-05-08T03:39:10.971Z,2.30
2023-05-08T03:41:19.837Z,2.23
2023-05-08T03:43:29.126Z,2.40
2023-05-08T03:45:38.197Z,2.50
2023-05-08T03:47:46.836Z,2.53
2023-05-08T03:49:57.446Z,2.27
2023-05-08T03:52:06.167Z,2.33
2023-05-08T03:54:14.761Z,2.43
2023-05-08T03:56:25.293Z,2.13
2023-05-08T03:58:37.242Z,2.47
2023-05-08T04:00:51.765Z,2.43
2023-05-08T04:03:07.429Z,2.50
2023-05-08T04:05:23.136Z,2.30
2023-05-08T04:07:34.399Z,2.37
2023-05-08T04:09:46.691Z,2.60
2023-05-08T04:12:02.852Z,2.60
2023-05-08T04:14:15.294Z,2.67
2023-05-08T04:16:25.242Z,2.63
2023-05-08T04:18:36.827Z,2.40
2023-05-08T04:20:49.381Z,2.77
2023-05-08T04:22:58.540Z,2.40
2023-05-08T04:25:08.505Z,2.47
2023-05-08T04:27:18.095Z,2.37
2023-05-08T04:29:27.238Z,2.27
2023-05-08T04:31:37.116Z,2.37
2023-05-08T04:33:46.658Z,2.43
2023-05-08T04:35:57.258Z,2.37
2023-05-08T04:38:07.010Z,2.33
2023-05-08T04:40:16.526Z,2.20
2023-05-08T04:42:26.169Z,2.20
2023-05-08T04:44:35.354Z,2.40
2023-05-08T04:46:44.096Z,2.47
2023-05-08T04:48:53.015Z,2.13
2023-05-08T04:51:03.599Z,2.10
2023-05-08T04:53:12.296Z,1.90
2023-05-08T04:55:21.580Z,2.07
2023-05-08T04:57:31.754Z,2.20
2023-05-08T04:59:40.756Z,2.23
2023-05-08T05:01:49.738Z,2.00
2023-05-08T05:03:58.282Z,2.00
2023-05-08T05:06:08.862Z,2.10
2023-05-08T05:08:17.650Z,2.10
2023-05-08T05:10:26.434Z,2.30
2023-05-08T05:12:35.008Z,2.10
2023-05-08T05:14:43.854Z,1.70
2023-05-08T05:16:52.834Z,2.00
2023-05-08T05:19:01.539Z,1.93
2023-05-08T05:21:12.235Z,2.13
2023-05-08T05:23:20.812Z,1.70
2023-05-08T05:25:29.468Z,1.60
2023-05-08T05:27:38.097Z,2.13
2023-05-08T05:29:47.524Z,2.13
2023-05-08T05:31:56.458Z,2.07
2023-05-08T05:34:05.279Z,1.83
2023-05-08T05:36:15.931Z,1.77
2023-05-08T05:38:25.336Z,2.27
2023-05-08T05:40:34.308Z,1.90
2023-05-08T05:42:43.038Z,2.00
2023-05-08T05:44:51.997Z,2.00
2023-05-08T05:47:01.157Z,2.10
2023-05-08T05:49:10.014Z,1.93
2023-05-08T05:51:20.065Z,1.73
2023-05-08T05:53:29.282Z,2.20
2023-05-08T05:55:38.173Z,2.03
2023-05-08T05:57:47.206Z,2.07
2023-05-08T05:59:55.731Z,1.80
2023-05-08T06:02:04.886Z,1.80
2023-05-08T06:04:13.528Z,2.00
2023-05-08T06:06:23.870Z,1.90
2023-05-08T06:08:32.716Z,2.07
2023-05-08T06:10:41.472Z,2.20
2023-05-08T06:12:50.693Z,2.10
2023-05-08T06:14:59.320Z,1.80
2023-05-08T06:17:08.058Z,1.70
2023-05-08T06:19:17.281Z,1.90
2023-05-08T06:21:28.862Z,1.77
2023-05-08T06:23:37.609Z,2.23
2023-05-08T06:25:46.639Z,1.80
2023-05-08T06:27:55.671Z,1.97
2023-05-08T06:30:07.855Z,1.90
2023-05-08T06:32:16.363Z,2.00
2023-05-08T06:34:25.290Z,2.30
2023-05-08T06:36:35.055Z,1.90
2023-05-08T06:38:45.644Z,2.13
2023-05-08T06:40:55.367Z,2.03
2023-05-08T06:43:04.364Z,1.80
2023-05-08T06:45:15.189Z,1.87
2023-05-08T06:47:24.347Z,1.77
2023-05-08T06:49:32.941Z,2.10
2023-05-08T06:51:41.967Z,2.03
2023-05-08T06:53:52.300Z,2.30
2023-05-08T06:56:01.341Z,1.97
2023-05-08T06:58:10.190Z,2.10
2023-05-08T07:00:19.491Z,2.23
2023-05-08T07:02:28.790Z,1.97
2023-05-08T07:04:37.627Z,2.13
2023-05-08T07:06:46.676Z,2.07
2023-05-08T07:08:57.050Z,2.10
2023-05-08T07:11:06.190Z,2.30
2023-05-08T07:13:15.143Z,2.00
2023-05-08T07:15:26.489Z,2.00
2023-05-08T07:17:37.081Z,2.07
2023-05-08T07:19:45.838Z,2.10
2023-05-08T07:21:54.888Z,2.33
2023-05-08T07:24:05.257Z,2.13
2023-05-08T07:26:14.785Z,2.37
2023-05-08T07:28:24.104Z,2.17
2023-05-08T07:30:33.809Z,2.30
2023-05-08T07:32:42.453Z,2.90
2023-05-08T07:34:51.462Z,2.13
2023-05-08T07:37:00.453Z,2.10
2023-05-08T07:39:11.035Z,2.37
2023-05-08T07:41:20.220Z,2.40
2023-05-08T07:43:28.965Z,2.20
2023-05-08T07:45:38.162Z,2.50
2023-05-08T07:47:52.964Z,2.37
2023-05-08T07:50:01.531Z,2.90
2023-05-08T07:52:10.341Z,2.00
2023-05-08T07:54:21.200Z,1.93
2023-05-08T07:56:29.777Z,2.07
2023-05-08T07:58:38.927Z,2.10
2023-05-08T08:00:47.680Z,2.20
2023-05-08T08:02:56.661Z,2.30
2023-05-08T08:05:05.840Z,2.27
2023-05-08T08:07:14.439Z,2.57
2023-05-08T08:09:25.603Z,2.50
2023-05-08T08:11:34.215Z,2.30
2023-05-08T08:13:43.063Z,2.33
2023-05-08T08:15:52.076Z,2.30
2023-05-08T08:18:01.761Z,2.17
2023-05-08T08:20:11.404Z,2.00
2023-05-08T08:22:20.432Z,2.27
2023-05-08T08:24:30.780Z,2.23
2023-05-08T08:26:39.232Z,2.00
2023-05-08T08:28:47.912Z,2.80
2023-05-08T08:30:56.500Z,2.10
2023-05-08T08:33:06.349Z,2.20
2023-05-08T08:35:15.840Z,2.50
2023-05-08T08:37:26.351Z,2.20
2023-05-08T08:39:37.061Z,2.20
2023-05-08T08:41:45.999Z,2.43
2023-05-08T08:43:55.056Z,2.50
2023-05-08T08:46:04.995Z,2.43
2023-05-08T08:48:14.012Z,2.20
2023-05-08T08:50:23.133Z,2.70
2023-05-08T08:52:33.591Z,2.57
2023-05-08T08:54:46.360Z,2.33
2023-05-08T08:56:55.832Z,2.40
2023-05-08T08:59:05.732Z,2.07
2023-05-08T09:01:17.699Z,2.70
2023-05-08T09:03:26.250Z,2.23
2023-05-08T09:05:35.242Z,2.40
2023-05-08T09:07:44.325Z,2.53
2023-05-08T09:09:55.259Z,2.27
2023-05-08T09:12:04.538Z,2.37
2023-05-08T09:14:13.556Z,2.93
2023-05-08T09:16:22.093Z,2.50
2023-05-08T09:18:30.931Z,2.50
2023-05-08T09:20:39.600Z,2.20
2023-05-08T09:22:48.943Z,2.30
2023-05-08T09:24:59.768Z,2.30
2023-05-08T09:27:19.314Z,2.50
2023-05-08T09:29:28.459Z,2.40
2023-05-08T09:31:39.826Z,2.13
2023-05-08T09:33:49.077Z,2.00
2023-05-08T09:35:59.115Z,2.40
2023-05-08T09:38:08.028Z,2.10
2023-05-08T09:40:19.954Z,2.53
2023-05-08T09:42:39.585Z,2.30
2023-05-08T09:44:49.525Z,2.67
2023-05-08T09:47:14.365Z,3.03
2023-05-08T09:49:23.453Z,2.60
2023-05-08T09:51:34.212Z,2.40
2023-05-08T09:53:43.364Z,2.10
2023-05-08T09:55:54.279Z,2.27
2023-05-08T09:58:03.438Z,2.30
2023-05-08T10:00:13.604Z,2.13
2023-05-08T10:02:22.626Z,2.60
2023-05-08T10:04:34.892Z,2.17
2023-05-08T10:06:43.944Z,2.67
2023-05-08T10:09:08.662Z,2.63
2023-05-08T10:11:19.712Z,2.50
2023-05-08T10:13:28.456Z,2.80
2023-05-08T10:15:39.768Z,2.50
2023-05-08T10:17:53.899Z,2.43
2023-05-08T10:20:08.107Z,2.50
2023-05-08T10:22:17.596Z,2.50
2023-05-08T10:24:28.688Z,2.80
2023-05-08T10:26:47.817Z,2.70
2023-05-08T10:29:07.670Z,2.30
2023-05-08T10:31:17.382Z,2.33
2023-05-08T10:33:29.619Z,2.03
2023-05-08T10:35:40.111Z,2.30
2023-05-08T10:37:49.662Z,2.20
2023-05-08T10:39:59.528Z,2.10
2023-05-08T10:42:10.253Z,2.17
2023-05-08T10:44:19.859Z,2.67
2023-05-08T10:46:36.255Z,2.33
2023-05-08T10:48:50.139Z,2.20
2023-05-08T10:51:02.977Z,2.10
2023-05-08T10:53:14.408Z,1.87
2023-05-08T10:55:25.701Z,2.30
2023-05-08T10:57:36.027Z,2.03
2023-05-08T10:59:47.522Z,2.20
2023-05-08T11:02:05.661Z,2.10
2023-05-08T11:04:22.855Z,2.50
2023-05-08T11:06:45.297Z,2.23
2023-05-08T11:08:54.868Z,2.30
2023-05-08T11:11:07.445Z,2.20
2023-05-08T11:13:18.028Z,2.10
2023-05-08T11:15:38.838Z,2.40
2023-05-08T11:17:55.772Z,2.20
2023-05-08T11:20:05.882Z,2.07
2023-05-08T11:22:19.158Z,1.80
2023-05-08T11:24:36.755Z,2.20
2023-05-08T11:26:50.568Z,2.17
2023-05-08T11:29:01.727Z,2.33
2023-05-08T11:31:11.211Z,2.13
2023-05-08T11:33:20.046Z,2.10
2023-05-08T11:35:42.708Z,2.10
2023-05-08T11:38:06.353Z,1.90
2023-05-08T11:40:33.144Z,2.07
2023-05-08T11:42:41.801Z,1.90
2023-05-08T11:44:52.691Z,2.10
2023-05-08T11:47:06.469Z,2.07
2023-05-08T11:49:23.778Z,2.17
2023-05-08T11:51:35.639Z,2.30
2023-05-08T11:53:45.784Z,1.83
2023-05-08T11:55:55.093Z,2.00
2023-05-08T11:58:03.771Z,2.17
2023-05-08T12:00:14.933Z,2.00
2023-05-08T12:02:36.613Z,1.97
2023-05-08T12:04:47.156Z,2.40
2023-05-08T12:07:00.145Z,1.70
2023-05-08T12:09:12.870Z,2.20
2023-05-08T12:11:25.329Z,2.00
2023-05-08T12:13:34.348Z,2.10
2023-05-08T12:15:44.256Z,2.13
2023-05-08T12:18:03.336Z,2.20
2023-05-08T12:20:14.348Z,2.30
2023-05-08T12:22:24.154Z,2.10
2023-05-08T12:24:33.217Z,1.70
2023-05-08T12:26:42.434Z,2.10
2023-05-08T12:28:57.329Z,2.03
2023-05-08T12:31:08.024Z,2.00
2023-05-08T12:33:17.642Z,2.00
2023-05-08T12:35:26.364Z,1.97
2023-05-08T12:37:34.961Z,1.93
2023-05-08T12:39:46.738Z,2.00
2023-05-08T12:41:55.413Z,2.23
2023-05-08T12:44:04.078Z,2.17
2023-05-08T12:46:15.474Z,2.17
2023-05-08T12:48:24.381Z,2.40
2023-05-08T12:50:36.327Z,2.20
2023-05-08T12:52:45.420Z,2.03
2023-05-08T12:54:54.718Z,2.10
2023-05-08T12:57:03.757Z,2.00
2023-05-08T12:59:12.943Z,2.03
2023-05-08T13:01:23.287Z,1.87
2023-05-08T13:03:33.306Z,1.90
2023-05-08T13:05:44.158Z,2.10
2023-05-08T13:07:53.274Z,1.97
2023-05-08T13:10:04.910Z,2.47
2023-05-08T13:12:13.796Z,1.87
2023-05-08T13:14:22.386Z,1.90
2023-05-08T13:16:32.848Z,1.80
2023-05-08T13:18:41.884Z,1.93
2023-05-08T13:20:50.425Z,1.93
2023-05-08T13:22:59.274Z,2.47
2023-05-08T13:25:08.512Z,2.03
2023-05-08T13:27:17.183Z,1.83
2023-05-08T13:29:25.722Z,2.40
2023-05-08T13:31:36.072Z,1.80
2023-05-08T13:33:44.780Z,1.87
2023-05-08T13:35:53.503Z,2.10
2023-05-08T13:38:02.691Z,1.70
2023-05-08T13:40:11.783Z,2.00
2023-05-08T13:42:20.373Z,2.07
2023-05-08T13:44:29.658Z,2.00
2023-05-08T13:46:39.870Z,1.90
2023-05-08T13:48:49.141Z,1.90
2023-05-08T13:50:57.920Z,1.80
2023-05-08T13:53:07.385Z,1.50
2023-05-08T13:55:16.757Z,1.50
2023-05-08T13:57:26.068Z,1.77
2023-05-08T13:59:34.642Z,1.47
2023-05-08T14:01:47.164Z,1.60
2023-05-08T14:03:56.363Z,1.80
2023-05-08T14:06:07.192Z,1.70
2023-05-08T14:08:16.428Z,1.60
2023-05-08T14:10:25.310Z,1.40
2023-05-08T14:12:36.432Z,1.50
2023-05-08T14:14:45.596Z,1.57
2023-05-08T14:16:55.795Z,1.53
2023-05-08T14:19:04.658Z,1.80
2023-05-08T14:21:13.295Z,1.77
2023-05-08T14:23:22.005Z,1.77
2023-05-08T14:25:30.664Z,1.63
2023-05-08T14:27:39.916Z,1.30
2023-05-08T14:29:48.616Z,2.10
2023-05-08T14:31:59.232Z,1.30
2023-05-08T14:34:07.991Z,1.40
2023-05-08T14:36:16.506Z,1.60
2023-05-08T14:38:25.524Z,1.50
2023-05-08T14:40:34.967Z,1.60
2023-05-08T14:42:43.975Z,1.63
2023-05-08T14:44:52.792Z,1.70
2023-05-08T14:47:03.202Z,1.60
2023-05-08T14:49:13.694Z,1.67
2023-05-08T14:51:25.659Z,1.90
2023-05-08T14:53:34.931Z,1.67
2023-05-08T14:55:44.082Z,1.33
2023-05-08T14:57:53.054Z,1.70
2023-05-08T15:00:02.024Z,1.77
2023-05-08T15:02:12.481Z,1.67
2023-05-08T15:04:21.544Z,1.90
2023-05-08T15:06:31.189Z,1.90
2023-05-08T15:08:40.023Z,1.60
2023-05-08T15:10:49.022Z,1.83
2023-05-08T15:12:57.640Z,1.50
2023-05-08T15:15:07.114Z,1.50
2023-05-08T15:17:17.751Z,1.70
2023-05-08T15:19:27.051Z,1.67
2023-05-08T15:21:36.155Z,1.80
2023-05-08T15:23:44.983Z,1.53
2023-05-08T15:25:53.584Z,1.50
2023-05-08T15:28:02.399Z,1.93
2023-05-08T15:30:11.719Z,2.07
2023-05-08T15:32:21.971Z,1.73
2023-05-08T15:34:32.816Z,1.50
2023-05-08T15:36:41.993Z,1.90
2023-05-08T15:38:50.969Z,1.70
2023-05-08T15:40:59.599Z,1.97
2023-05-08T15:43:08.521Z,1.83
2023-05-08T15:45:17.675Z,2.00
2023-05-08T15:47:28.763Z,2.00
2023-05-08T15:49:37.730Z,1.97
2023-05-08T15:51:46.438Z,2.20
2023-05-08T15:53:56.427Z,2.30
2023-05-08T15:56:07.188Z,2.03
2023-05-08T15:58:15.793Z,2.10
2023-05-08T16:00:27.342Z,1.97
2023-05-08T16:02:40.892Z,3.00
2023-05-08T16:04:50.022Z,2.53
2023-05-08T16:06:58.836Z,2.80
2023-05-08T16:09:08.016Z,2.30
2023-05-08T16:11:16.712Z,2.57
2023-05-08T16:13:25.929Z,2.63
2023-05-08T16:15:34.534Z,2.87
2023-05-08T16:17:44.629Z,2.30
2023-05-08T16:19:53.410Z,1.80
2023-05-08T16:22:02.074Z,2.00
2023-05-08T16:24:11.067Z,1.80
2023-05-08T16:26:20.417Z,1.97
2023-05-08T16:28:29.468Z,2.00
2023-05-08T16:30:38.159Z,1.80
2023-05-08T16:32:49.386Z,1.80
2023-05-08T16:34:58.013Z,2.07
2023-05-08T16:37:06.603Z,1.80
2023-05-08T16:39:15.288Z,1.90
2023-05-08T16:41:24.124Z,1.83
2023-05-08T16:43:33.035Z,1.80
2023-05-08T16:45:42.254Z,2.37
2023-05-08T16:47:52.412Z,2.40
2023-05-08T16:50:01.215Z,1.53
2023-05-08T16:52:10.380Z,1.77
2023-05-08T16:54:18.947Z,1.50
2023-05-08T16:56:27.809Z,1.60
2023-05-08T16:58:36.544Z,1.50
2023-05-08T17:00:45.570Z,1.50
2023-05-08T17:02:56.263Z,1.50
2023-05-08T17:05:05.115Z,1.60
2023-05-08T17:07:13.808Z,1.80
2023-05-08T17:09:22.327Z,1.83
2023-05-08T17:11:31.675Z,1.77
2023-05-08T17:13:40.407Z,1.73
2023-05-08T17:15:49.174Z,1.60
2023-05-08T17:17:59.614Z,1.40
2023-05-08T17:20:08.967Z,1.40
2023-05-08T17:22:19.634Z,1.40
2023-05-08T17:24:28.660Z,1.30
2023-05-08T17:26:38.253Z,2.13
2023-05-08T17:28:46.852Z,1.40
2023-05-08T17:30:55.512Z,1.60
2023-05-08T17:33:07.308Z,1.40
2023-05-08T17:35:15.959Z,1.50
2023-05-08T17:37:24.685Z,1.30
2023-05-08T17:39:33.455Z,1.40
2023-05-08T17:41:42.400Z,1.50
2023-05-08T17:43:51.307Z,1.60
2023-05-08T17:46:00.212Z,1.43
2023-05-08T17:48:10.475Z,1.50
2023-05-08T17:50:19.455Z,1.70
2023-05-08T17:52:28.529Z,1.30
2023-05-08T17:54:37.505Z,1.70
2023-05-08T17:56:47.008Z,1.40
2023-05-08T17:58:56.148Z,1.50
2023-05-08T18:01:04.881Z,1.40
2023-05-08T18:03:15.231Z,1.63
2023-05-08T18:05:23.803Z,1.40
2023-05-08T18:07:33.248Z,1.23
2023-05-08T18:09:42.393Z,1.70
2023-05-08T18:11:50.754Z,1.30
2023-05-08T18:13:59.432Z,1.47
2023-05-08T18:16:08.251Z,1.40
2023-05-08T18:18:18.539Z,1.13
2023-05-08T18:20:26.822Z,1.67
2023-05-08T18:22:35.782Z,1.90
2023-05-08T18:24:45.606Z,1.33
2023-05-08T18:26:54.018Z,1.30
2023-05-08T18:29:02.655Z,1.20
2023-05-08T18:31:11.133Z,1.30
2023-05-08T18:33:21.031Z,1.50
2023-05-08T18:35:29.477Z,1.40
2023-05-08T18:37:38.158Z,1.40
2023-05-08T18:39:46.883Z,1.70
2023-05-08T18:41:55.218Z,1.33
2023-05-08T18:44:05.222Z,1.40
2023-05-08T18:46:14.640Z,1.40
2023-05-08T18:48:24.502Z,1.30
2023-05-08T18:50:33.649Z,1.50
2023-05-08T18:52:42.330Z,1.37
2023-05-08T18:54:51.300Z,1.50
2023-05-08T18:57:00.066Z,1.43
2023-05-08T18:59:08.980Z,1.70
2023-05-08T19:01:20.325Z,1.40
2023-05-08T19:03:30.628Z,1.37
2023-05-08T19:05:39.530Z,1.83
2023-05-08T19:07:48.357Z,1.53
2023-05-08T19:09:58.068Z,1.33
2023-05-08T19:12:06.531Z,1.27
2023-05-08T19:14:14.832Z,1.60
2023-05-08T19:16:23.398Z,2.30
2023-05-08T19:18:34.127Z,1.40
2023-05-08T19:20:42.644Z,1.30
2023-05-08T19:22:51.574Z,1.30
2023-05-08T19:25:00.442Z,1.67
2023-05-08T19:27:08.794Z,1.50
2023-05-08T19:29:17.332Z,1.30
2023-05-08T19:31:26.114Z,1.70
2023-05-08T19:33:36.369Z,1.40
2023-05-08T19:35:44.896Z,1.50
2023-05-08T19:37:53.486Z,1.60
2023-05-08T19:40:01.722Z,1.50
2023-05-08T19:42:11.621Z,1.77
2023-05-08T19:44:20.407Z,1.67
2023-05-08T19:46:29.078Z,1.63
2023-05-08T19:48:40.241Z,1.60
2023-05-08T19:50:48.823Z,1.70
2023-05-08T19:52:57.349Z,1.50
2023-05-08T19:55:06.481Z,1.53
2023-05-08T19:57:15.267Z,1.90
2023-05-08T19:59:23.725Z,1.70
2023-05-08T20:01:32.350Z,1.60
2023-05-08T20:03:43.088Z,1.80
2023-05-08T20:05:52.399Z,2.00
2023-05-08T20:08:01.130Z,1.80
2023-05-08T20:10:11.062Z,1.60
2023-05-08T20:12:20.018Z,2.10
2023-05-08T20:14:28.521Z,1.50
2023-05-08T20:16:37.238Z,2.00
2023-05-08T20:18:47.213Z,1.60
2023-05-08T20:20:55.572Z,1.57
2023-05-08T20:23:04.557Z,1.70
2023-05-08T20:25:13.476Z,1.83
2023-05-08T20:27:22.049Z,1.73
2023-05-08T20:29:30.676Z,1.80
2023-05-08T20:31:41.118Z,1.80
2023-05-08T20:33:51.275Z,1.87
2023-05-08T20:35:59.688Z,1.90
2023-05-08T20:38:08.447Z,1.73
2023-05-08T20:40:17.483Z,1.77
2023-05-08T20:42:26.138Z,1.70
2023-05-08T20:44:34.798Z,1.63
2023-05-08T20:46:43.195Z,1.67
2023-05-08T20:48:52.936Z,1.73
2023-05-08T20:51:01.250Z,1.87
2023-05-08T20:53:09.680Z,2.07
2023-05-08T20:55:18.343Z,1.53
2023-05-08T20:57:27.129Z,1.67
2023-05-08T20:59:36.364Z,1.53
2023-05-08T21:01:45.024Z,2.47
2023-05-08T21:03:55.457Z,1.73
2023-05-08T21:06:04.544Z,1.77
2023-05-08T21:08:13.422Z,2.00
2023-05-08T21:10:21.716Z,2.03
2023-05-08T21:12:30.764Z,1.60
2023-05-08T21:14:39.472Z,1.47
2023-05-08T21:16:47.801Z,1.90
2023-05-08T21:18:58.668Z,2.00
2023-05-08T21:21:15.964Z,1.70
2023-05-08T21:23:24.595Z,2.47
2023-05-08T21:25:33.493Z,1.60
2023-05-08T21:27:42.466Z,1.93
2023-05-08T21:29:50.750Z,1.97
2023-05-08T21:31:59.113Z,1.90
2023-05-08T21:34:09.272Z,1.80
2023-05-08T21:36:17.986Z,1.97
2023-05-08T21:38:26.258Z,1.80
2023-05-08T21:40:35.495Z,2.00
2023-05-08T21:42:44.624Z,1.77
2023-05-08T21:44:56.032Z,1.80
2023-05-08T21:47:04.717Z,1.80
2023-05-08T21:49:15.302Z,1.80
2023-05-08T21:51:23.653Z,1.87
2023-05-08T21:53:32.236Z,2.00
2023-05-08T21:55:41.243Z,1.77
2023-05-08T21:57:50.061Z,1.80
2023-05-08T21:59:59.013Z,1.90
2023-05-08T22:02:07.450Z,2.00
2023-05-08T22:04:17.809Z,2.00
2023-05-08T22:06:26.890Z,1.83
2023-05-08T22:08:35.495Z,2.07
2023-05-08T22:10:44.567Z,1.70
2023-05-08T22:12:53.138Z,2.00
2023-05-08T22:15:01.536Z,2.00
2023-05-08T22:17:09.956Z,1.70
2023-05-08T22:19:20.211Z,2.17
2023-05-08T22:21:30.220Z,1.83
2023-05-08T22:23:38.590Z,2.00
2023-05-08T22:25:47.078Z,2.10
2023-05-08T22:27:55.796Z,2.10
2023-05-08T22:30:04.412Z,2.33
2023-05-08T22:32:13.903Z,2.03
2023-05-08T22:34:23.759Z,2.07
2023-05-08T22:36:32.771Z,2.17
2023-05-08T22:38:41.726Z,2.07
2023-05-08T22:40:50.479Z,1.90
2023-05-08T22:43:00.256Z,2.00
2023-05-08T22:45:10.390Z,1.80
2023-05-08T22:47:19.311Z,1.90
2023-05-08T22:49:30.307Z,2.80
2023-05-08T22:51:39.101Z,1.93
2023-05-08T22:53:49.120Z,2.23
2023-05-08T22:55:57.418Z,1.97
2023-05-08T22:58:06.276Z,1.90
2023-05-08T23:00:16.340Z,2.10
2023-05-08T23:02:24.848Z,1.90
2023-05-08T23:04:36.241Z,2.20
2023-05-08T23:06:45.145Z,2.20
2023-05-08T23:08:53.813Z,2.20
2023-05-08T23:11:02.163Z,2.00
2023-05-08T23:13:10.705Z,2.40
2023-05-08T23:15:21.388Z,2.07
2023-05-08T23:17:30.119Z,2.07
2023-05-08T23:19:40.181Z,2.30
2023-05-08T23:21:48.925Z,2.30
2023-05-08T23:23:57.804Z,2.10
2023-05-08T23:26:06.451Z,1.90
2023-05-08T23:28:14.856Z,2.07
2023-05-08T23:30:23.396Z,1.93
2023-05-08T23:32:31.834Z,2.00
2023-05-08T23:34:43.153Z,2.03
2023-05-08T23:36:51.893Z,2.07
2023-05-08T23:39:00.501Z,2.30
2023-05-08T23:41:09.417Z,1.73
2023-05-08T23:43:18.304Z,2.10
2023-05-08T23:45:26.616Z,2.00
2023-05-08T23:47:35.205Z,1.93
2023-05-08T23:49:45.536Z,2.20
2023-05-08T23:51:54.478Z,2.20
2023-05-08T23:54:03.484Z,2.30
2023-05-08T23:56:11.851Z,1.73
2023-05-08T23:58:20.497Z,2.17
